sensor_id;sensor_type;location;lat;lon;timestamp;P1;durP1;ratioP1;P2;durP2;ratioP2
52586;SDS011;38480;52.724;6.436;2022-09-16T00:01:21;6.00;;;1.70;;
52586;SDS011;38480;52.724;6.436;2022-09-16T00:03:48;8.33;;;2.20;;
52586;SDS011;38480;52.724;6.436;2022-09-16T00:08:43;7.43;;;2.20;;
52586;SDS011;38480;52.724;6.436;2022-09-16T00:11:09;4.10;;;1.90;;
52586;SDS011;38480;52.724;6.436;2022-09-16T00:13:36;6.47;;;1.87;;
52586;SDS011;38480;52.724;6.436;2022-09-16T00:16:05;7.83;;;2.07;;
52586;SDS011;38480;52.724;6.436;2022-09-16T00:18:31;7.30;;;1.60;;
52586;SDS011;38480;52.724;6.436;2022-09-16T00:20:57;4.57;;;1.43;;
52586;SDS011;38480;52.724;6.436;2022-09-16T00:23:24;6.57;;;1.50;;
52586;SDS011;38480;52.724;6.436;2022-09-16T00:25:50;13.53;;;1.30;;
52586;SDS011;38480;52.724;6.436;2022-09-16T00:28:16;7.70;;;1.60;;
52586;SDS011;38480;52.724;6.436;2022-09-16T00:30:43;8.50;;;1.60;;
52586;SDS011;38480;52.724;6.436;2022-09-16T00:33:09;7.00;;;1.27;;
52586;SDS011;38480;52.724;6.436;2022-09-16T00:35:35;8.27;;;1.73;;
52586;SDS011;38480;52.724;6.436;2022-09-16T00:38:01;12.30;;;1.60;;
52586;SDS011;38480;52.724;6.436;2022-09-16T00:40:27;10.23;;;1.80;;
52586;SDS011;38480;52.724;6.436;2022-09-16T00:42:53;6.57;;;1.57;;
52586;SDS011;38480;52.724;6.436;2022-09-16T00:45:23;7.50;;;1.80;;
52586;SDS011;38480;52.724;6.436;2022-09-16T00:47:52;8.13;;;1.77;;
52586;SDS011;38480;52.724;6.436;2022-09-16T00:52:49;11.17;;;1.63;;
52586;SDS011;38480;52.724;6.436;2022-09-16T00:55:18;10.37;;;2.20;;
52586;SDS011;38480;52.724;6.436;2022-09-16T00:57:46;8.77;;;1.80;;
52586;SDS011;38480;52.724;6.436;2022-09-16T01:00:12;8.17;;;1.70;;
52586;SDS011;38480;52.724;6.436;2022-09-16T01:02:39;10.27;;;2.43;;
52586;SDS011;38480;52.724;6.436;2022-09-16T01:05:09;8.53;;;1.90;;
52586;SDS011;38480;52.724;6.436;2022-09-16T01:07:38;7.87;;;1.97;;
52586;SDS011;38480;52.724;6.436;2022-09-16T01:10:05;7.23;;;1.93;;
52586;SDS011;38480;52.724;6.436;2022-09-16T01:12:31;10.63;;;2.00;;
52586;SDS011;38480;52.724;6.436;2022-09-16T01:14:58;8.23;;;2.00;;
52586;SDS011;38480;52.724;6.436;2022-09-16T01:22:54;11.37;;;1.77;;
52586;SDS011;38480;52.724;6.436;2022-09-16T01:28:15;7.40;;;1.90;;
52586;SDS011;38480;52.724;6.436;2022-09-16T01:33:42;6.90;;;1.90;;
52586;SDS011;38480;52.724;6.436;2022-09-16T01:36:16;6.90;;;1.93;;
52586;SDS011;38480;52.724;6.436;2022-09-16T01:38:55;7.13;;;1.40;;
52586;SDS011;38480;52.724;6.436;2022-09-16T01:46:23;7.33;;;1.50;;
52586;SDS011;38480;52.724;6.436;2022-09-16T01:48:56;12.18;;;2.10;;
52586;SDS011;38480;52.724;6.436;2022-09-16T01:51:24;9.07;;;1.63;;
52586;SDS011;38480;52.724;6.436;2022-09-16T01:54:03;5.45;;;1.98;;
52586;SDS011;38480;52.724;6.436;2022-09-16T01:56:44;10.67;;;1.70;;
52586;SDS011;38480;52.724;6.436;2022-09-16T01:59:16;6.13;;;1.43;;
52586;SDS011;38480;52.724;6.436;2022-09-16T02:01:54;6.63;;;1.80;;
52586;SDS011;38480;52.724;6.436;2022-09-16T02:04:32;10.33;;;2.13;;
52586;SDS011;38480;52.724;6.436;2022-09-16T02:07:00;11.20;;;1.67;;
52586;SDS011;38480;52.724;6.436;2022-09-16T02:09:29;13.37;;;1.83;;
52586;SDS011;38480;52.724;6.436;2022-09-16T02:11:57;8.97;;;1.97;;
52586;SDS011;38480;52.724;6.436;2022-09-16T02:14:25;8.03;;;1.47;;
52586;SDS011;38480;52.724;6.436;2022-09-16T02:16:59;7.30;;;1.87;;
52586;SDS011;38480;52.724;6.436;2022-09-16T02:19:38;15.57;;;2.10;;
52586;SDS011;38480;52.724;6.436;2022-09-16T02:22:07;11.47;;;2.13;;
52586;SDS011;38480;52.724;6.436;2022-09-16T02:24:34;10.37;;;1.73;;
52586;SDS011;38480;52.724;6.436;2022-09-16T02:27:01;12.87;;;2.77;;
52586;SDS011;38480;52.724;6.436;2022-09-16T02:29:31;10.97;;;1.70;;
52586;SDS011;38480;52.724;6.436;2022-09-16T02:31:59;8.23;;;1.90;;
52586;SDS011;38480;52.724;6.436;2022-09-16T02:34:30;7.03;;;1.80;;
52586;SDS011;38480;52.724;6.436;2022-09-16T02:36:58;7.77;;;1.90;;
52586;SDS011;38480;52.724;6.436;2022-09-16T02:39:27;9.53;;;1.87;;
52586;SDS011;38480;52.724;6.436;2022-09-16T02:41:54;6.33;;;1.53;;
52586;SDS011;38480;52.724;6.436;2022-09-16T02:44:21;8.13;;;1.67;;
52586;SDS011;38480;52.724;6.436;2022-09-16T02:47:07;7.37;;;1.60;;
52586;SDS011;38480;52.724;6.436;2022-09-16T02:52:05;9.13;;;1.90;;
52586;SDS011;38480;52.724;6.436;2022-09-16T02:54:46;12.33;;;1.97;;
52586;SDS011;38480;52.724;6.436;2022-09-16T02:57:14;9.07;;;1.93;;
52586;SDS011;38480;52.724;6.436;2022-09-16T02:59:41;9.53;;;2.57;;
52586;SDS011;38480;52.724;6.436;2022-09-16T03:02:07;8.60;;;1.70;;
52586;SDS011;38480;52.724;6.436;2022-09-16T03:04:33;13.20;;;2.23;;
52586;SDS011;38480;52.724;6.436;2022-09-16T03:07:01;9.90;;;1.73;;
52586;SDS011;38480;52.724;6.436;2022-09-16T03:09:27;8.97;;;2.07;;
52586;SDS011;38480;52.724;6.436;2022-09-16T03:27:21;6.67;;;2.13;;
52586;SDS011;38480;52.724;6.436;2022-09-16T03:30:00;12.00;;;2.03;;
52586;SDS011;38480;52.724;6.436;2022-09-16T03:32:31;8.00;;;2.17;;
52586;SDS011;38480;52.724;6.436;2022-09-16T03:35:03;4.40;;;1.83;;
52586;SDS011;38480;52.724;6.436;2022-09-16T03:37:32;8.43;;;2.17;;
52586;SDS011;38480;52.724;6.436;2022-09-16T03:40:02;9.23;;;2.40;;
52586;SDS011;38480;52.724;6.436;2022-09-16T03:42:29;8.87;;;2.43;;
52586;SDS011;38480;52.724;6.436;2022-09-16T03:44:56;12.57;;;2.90;;
52586;SDS011;38480;52.724;6.436;2022-09-16T03:47:22;9.70;;;2.70;;
52586;SDS011;38480;52.724;6.436;2022-09-16T03:49:48;10.93;;;2.53;;
52586;SDS011;38480;52.724;6.436;2022-09-16T03:52:15;8.43;;;2.87;;
52586;SDS011;38480;52.724;6.436;2022-09-16T03:54:43;8.60;;;2.27;;
52586;SDS011;38480;52.724;6.436;2022-09-16T03:57:10;8.23;;;2.57;;
52586;SDS011;38480;52.724;6.436;2022-09-16T03:59:36;18.60;;;3.27;;
52586;SDS011;38480;52.724;6.436;2022-09-16T04:02:02;10.60;;;2.80;;
52586;SDS011;38480;52.724;6.436;2022-09-16T04:04:28;8.50;;;2.60;;
52586;SDS011;38480;52.724;6.436;2022-09-16T04:06:54;9.40;;;2.40;;
52586;SDS011;38480;52.724;6.436;2022-09-16T04:09:20;9.07;;;2.90;;
52586;SDS011;38480;52.724;6.436;2022-09-16T04:11:46;16.03;;;3.20;;
52586;SDS011;38480;52.724;6.436;2022-09-16T04:14:12;8.83;;;3.00;;
52586;SDS011;38480;52.724;6.436;2022-09-16T04:16:38;9.17;;;3.10;;
52586;SDS011;38480;52.724;6.436;2022-09-16T04:19:04;8.03;;;3.10;;
52586;SDS011;38480;52.724;6.436;2022-09-16T04:21:31;12.40;;;2.80;;
52586;SDS011;38480;52.724;6.436;2022-09-16T04:23:57;8.57;;;3.40;;
52586;SDS011;38480;52.724;6.436;2022-09-16T04:26:23;10.13;;;2.67;;
52586;SDS011;38480;52.724;6.436;2022-09-16T04:28:52;11.37;;;2.77;;
52586;SDS011;38480;52.724;6.436;2022-09-16T04:31:19;5.50;;;2.87;;
52586;SDS011;38480;52.724;6.436;2022-09-16T04:33:45;13.27;;;3.70;;
52586;SDS011;38480;52.724;6.436;2022-09-16T04:36:12;12.47;;;3.37;;
52586;SDS011;38480;52.724;6.436;2022-09-16T04:38:39;6.20;;;2.53;;
52586;SDS011;38480;52.724;6.436;2022-09-16T04:41:07;13.13;;;2.97;;
52586;SDS011;38480;52.724;6.436;2022-09-16T04:43:33;14.07;;;3.47;;
52586;SDS011;38480;52.724;6.436;2022-09-16T04:45:59;7.77;;;2.77;;
52586;SDS011;38480;52.724;6.436;2022-09-16T04:48:26;12.30;;;3.20;;
52586;SDS011;38480;52.724;6.436;2022-09-16T04:50:52;9.30;;;2.80;;
52586;SDS011;38480;52.724;6.436;2022-09-16T04:53:19;11.43;;;3.50;;
52586;SDS011;38480;52.724;6.436;2022-09-16T04:55:45;11.00;;;3.40;;
52586;SDS011;38480;52.724;6.436;2022-09-16T04:58:12;10.40;;;3.20;;
52586;SDS011;38480;52.724;6.436;2022-09-16T05:00:38;7.60;;;2.90;;
52586;SDS011;38480;52.724;6.436;2022-09-16T05:03:05;10.63;;;3.20;;
52586;SDS011;38480;52.724;6.436;2022-09-16T05:05:31;14.20;;;2.97;;
52586;SDS011;38480;52.724;6.436;2022-09-16T05:07:57;9.97;;;3.07;;
52586;SDS011;38480;52.724;6.436;2022-09-16T05:10:24;6.13;;;2.70;;
52586;SDS011;38480;52.724;6.436;2022-09-16T05:12:51;14.77;;;3.87;;
52586;SDS011;38480;52.724;6.436;2022-09-16T05:15:18;11.90;;;3.07;;
52586;SDS011;38480;52.724;6.436;2022-09-16T05:17:44;9.07;;;3.10;;
52586;SDS011;38480;52.724;6.436;2022-09-16T05:20:11;14.37;;;2.67;;
52586;SDS011;38480;52.724;6.436;2022-09-16T05:22:38;7.57;;;2.77;;
52586;SDS011;38480;52.724;6.436;2022-09-16T05:25:04;13.47;;;3.20;;
52586;SDS011;38480;52.724;6.436;2022-09-16T05:27:31;9.03;;;2.80;;
52586;SDS011;38480;52.724;6.436;2022-09-16T05:29:58;15.37;;;3.40;;
52586;SDS011;38480;52.724;6.436;2022-09-16T05:32:24;9.37;;;3.10;;
52586;SDS011;38480;52.724;6.436;2022-09-16T05:34:51;17.40;;;3.33;;
52586;SDS011;38480;52.724;6.436;2022-09-16T05:37:17;13.97;;;2.40;;
52586;SDS011;38480;52.724;6.436;2022-09-16T05:39:44;8.33;;;2.70;;
52586;SDS011;38480;52.724;6.436;2022-09-16T05:42:10;13.87;;;3.90;;
52586;SDS011;38480;52.724;6.436;2022-09-16T05:44:36;12.40;;;3.33;;
52586;SDS011;38480;52.724;6.436;2022-09-16T05:47:02;15.20;;;3.67;;
52586;SDS011;38480;52.724;6.436;2022-09-16T05:49:28;17.57;;;4.33;;
52586;SDS011;38480;52.724;6.436;2022-09-16T05:51:54;12.60;;;3.63;;
52586;SDS011;38480;52.724;6.436;2022-09-16T05:54:20;13.77;;;3.30;;
52586;SDS011;38480;52.724;6.436;2022-09-16T05:56:49;9.40;;;2.83;;
52586;SDS011;38480;52.724;6.436;2022-09-16T05:59:15;23.47;;;5.00;;
52586;SDS011;38480;52.724;6.436;2022-09-16T06:01:42;12.13;;;2.60;;
52586;SDS011;38480;52.724;6.436;2022-09-16T06:04:09;14.30;;;3.10;;
52586;SDS011;38480;52.724;6.436;2022-09-16T06:06:39;9.60;;;2.80;;
52586;SDS011;38480;52.724;6.436;2022-09-16T06:09:12;10.27;;;2.50;;
52586;SDS011;38480;52.724;6.436;2022-09-16T06:11:40;12.33;;;2.33;;
52586;SDS011;38480;52.724;6.436;2022-09-16T06:14:06;11.43;;;2.93;;
52586;SDS011;38480;52.724;6.436;2022-09-16T06:16:33;14.63;;;2.87;;
52586;SDS011;38480;52.724;6.436;2022-09-16T06:19:00;10.70;;;2.67;;
52586;SDS011;38480;52.724;6.436;2022-09-16T06:21:26;13.03;;;2.20;;
52586;SDS011;38480;52.724;6.436;2022-09-16T06:23:53;12.27;;;2.20;;
52586;SDS011;38480;52.724;6.436;2022-09-16T06:26:20;13.17;;;2.27;;
52586;SDS011;38480;52.724;6.436;2022-09-16T06:28:47;7.60;;;1.80;;
52586;SDS011;38480;52.724;6.436;2022-09-16T06:31:15;11.80;;;2.00;;
52586;SDS011;38480;52.724;6.436;2022-09-16T06:33:42;13.93;;;2.20;;
52586;SDS011;38480;52.724;6.436;2022-09-16T06:38:34;13.53;;;1.83;;
52586;SDS011;38480;52.724;6.436;2022-09-16T06:41:01;10.50;;;1.70;;
52586;SDS011;38480;52.724;6.436;2022-09-16T06:43:27;11.37;;;2.00;;
52586;SDS011;38480;52.724;6.436;2022-09-16T06:46:13;9.40;;;1.80;;
52586;SDS011;38480;52.724;6.436;2022-09-16T06:48:43;9.43;;;1.30;;
52586;SDS011;38480;52.724;6.436;2022-09-16T06:51:10;11.80;;;2.17;;
52586;SDS011;38480;52.724;6.436;2022-09-16T06:53:37;17.20;;;2.97;;
52586;SDS011;38480;52.724;6.436;2022-09-16T06:56:04;10.10;;;1.87;;
52586;SDS011;38480;52.724;6.436;2022-09-16T06:58:31;8.17;;;1.57;;
52586;SDS011;38480;52.724;6.436;2022-09-16T07:00:57;19.07;;;2.67;;
52586;SDS011;38480;52.724;6.436;2022-09-16T07:03:23;11.27;;;1.47;;
52586;SDS011;38480;52.724;6.436;2022-09-16T07:05:56;12.37;;;2.03;;
52586;SDS011;38480;52.724;6.436;2022-09-16T07:08:22;11.63;;;2.22;;
52586;SDS011;38480;52.724;6.436;2022-09-16T07:11:22;12.37;;;1.67;;
52586;SDS011;38480;52.724;6.436;2022-09-16T07:13:42;11.07;;;1.50;;
52586;SDS011;38480;52.724;6.436;2022-09-16T07:16:09;11.20;;;1.23;;
52586;SDS011;38480;52.724;6.436;2022-09-16T07:18:35;12.63;;;1.40;;
52586;SDS011;38480;52.724;6.436;2022-09-16T07:21:12;10.70;;;2.37;;
52586;SDS011;38480;52.724;6.436;2022-09-16T07:23:39;11.27;;;1.50;;
52586;SDS011;38480;52.724;6.436;2022-09-16T07:26:07;12.33;;;2.10;;
52586;SDS011;38480;52.724;6.436;2022-09-16T07:28:34;10.37;;;1.33;;
52586;SDS011;38480;52.724;6.436;2022-09-16T07:31:04;15.37;;;1.83;;
52586;SDS011;38480;52.724;6.436;2022-09-16T07:33:31;8.83;;;1.50;;
52586;SDS011;38480;52.724;6.436;2022-09-16T07:36:00;12.03;;;2.00;;
52586;SDS011;38480;52.724;6.436;2022-09-16T07:38:28;14.57;;;2.57;;
52586;SDS011;38480;52.724;6.436;2022-09-16T07:40:54;12.10;;;1.53;;
52586;SDS011;38480;52.724;6.436;2022-09-16T07:43:20;10.57;;;1.70;;
52586;SDS011;38480;52.724;6.436;2022-09-16T07:45:53;9.77;;;1.37;;
52586;SDS011;38480;52.724;6.436;2022-09-16T07:48:20;11.48;;;1.63;;
52586;SDS011;38480;52.724;6.436;2022-09-16T07:50:56;14.23;;;2.43;;
52586;SDS011;38480;52.724;6.436;2022-09-16T07:53:23;14.37;;;1.63;;
52586;SDS011;38480;52.724;6.436;2022-09-16T07:55:51;11.30;;;1.43;;
52586;SDS011;38480;52.724;6.436;2022-09-16T07:58:17;10.50;;;1.70;;
52586;SDS011;38480;52.724;6.436;2022-09-16T08:00:43;20.23;;;2.57;;
52586;SDS011;38480;52.724;6.436;2022-09-16T08:03:09;9.73;;;1.47;;
52586;SDS011;38480;52.724;6.436;2022-09-16T08:05:35;11.70;;;1.70;;
52586;SDS011;38480;52.724;6.436;2022-09-16T08:08:01;12.20;;;1.40;;
52586;SDS011;38480;52.724;6.436;2022-09-16T08:10:27;15.57;;;1.90;;
52586;SDS011;38480;52.724;6.436;2022-09-16T08:12:53;8.60;;;1.73;;
52586;SDS011;38480;52.724;6.436;2022-09-16T08:15:19;7.43;;;1.33;;
52586;SDS011;38480;52.724;6.436;2022-09-16T08:17:45;14.13;;;1.80;;
52586;SDS011;38480;52.724;6.436;2022-09-16T08:20:11;14.00;;;2.30;;
52586;SDS011;38480;52.724;6.436;2022-09-16T08:22:38;13.37;;;1.70;;
52586;SDS011;38480;52.724;6.436;2022-09-16T08:25:04;8.43;;;1.80;;
52586;SDS011;38480;52.724;6.436;2022-09-16T08:27:33;14.43;;;1.53;;
52586;SDS011;38480;52.724;6.436;2022-09-16T08:29:59;7.93;;;1.50;;
52586;SDS011;38480;52.724;6.436;2022-09-16T08:32:25;11.83;;;1.67;;
52586;SDS011;38480;52.724;6.436;2022-09-16T08:34:51;10.17;;;1.87;;
52586;SDS011;38480;52.724;6.436;2022-09-16T08:37:18;14.47;;;1.40;;
52586;SDS011;38480;52.724;6.436;2022-09-16T08:39:45;12.47;;;1.87;;
52586;SDS011;38480;52.724;6.436;2022-09-16T08:44:59;6.70;;;1.50;;
52586;SDS011;38480;52.724;6.436;2022-09-16T08:49:55;4.67;;;1.37;;
52586;SDS011;38480;52.724;6.436;2022-09-16T08:54:53;12.27;;;2.20;;
52586;SDS011;38480;52.724;6.436;2022-09-16T08:57:21;8.00;;;1.70;;
52586;SDS011;38480;52.724;6.436;2022-09-16T08:59:58;10.23;;;1.67;;
52586;SDS011;38480;52.724;6.436;2022-09-16T09:02:41;12.97;;;2.10;;
52586;SDS011;38480;52.724;6.436;2022-09-16T09:05:54;17.07;;;3.13;;
52586;SDS011;38480;52.724;6.436;2022-09-16T09:08:05;9.50;;;1.63;;
52586;SDS011;38480;52.724;6.436;2022-09-16T09:13:37;10.80;;;1.53;;
52586;SDS011;38480;52.724;6.436;2022-09-16T09:16:14;11.03;;;1.63;;
52586;SDS011;38480;52.724;6.436;2022-09-16T09:18:44;10.60;;;2.00;;
52586;SDS011;38480;52.724;6.436;2022-09-16T09:26:50;8.27;;;1.60;;
52586;SDS011;38480;52.724;6.436;2022-09-16T09:31:45;10.33;;;1.70;;
52586;SDS011;38480;52.724;6.436;2022-09-16T09:37:04;8.20;;;1.67;;
52586;SDS011;38480;52.724;6.436;2022-09-16T09:39:44;11.50;;;1.93;;
52586;SDS011;38480;52.724;6.436;2022-09-16T09:42:20;10.47;;;2.13;;
52586;SDS011;38480;52.724;6.436;2022-09-16T09:49:50;11.40;;;1.30;;
52586;SDS011;38480;52.724;6.436;2022-09-16T09:54:44;9.07;;;2.03;;
52586;SDS011;38480;52.724;6.436;2022-09-16T09:57:15;5.83;;;1.70;;
52586;SDS011;38480;52.724;6.436;2022-09-16T10:00:02;14.17;;;2.57;;
52586;SDS011;38480;52.724;6.436;2022-09-16T10:02:33;8.43;;;1.87;;
52586;SDS011;38480;52.724;6.436;2022-09-16T10:05:00;10.47;;;2.53;;
52586;SDS011;38480;52.724;6.436;2022-09-16T10:07:26;12.83;;;1.50;;
52586;SDS011;38480;52.724;6.436;2022-09-16T10:09:57;5.73;;;1.67;;
52586;SDS011;38480;52.724;6.436;2022-09-16T10:12:28;7.60;;;1.47;;
52586;SDS011;38480;52.724;6.436;2022-09-16T10:14:54;8.70;;;1.77;;
52586;SDS011;38480;52.724;6.436;2022-09-16T10:17:20;9.10;;;1.50;;
52586;SDS011;38480;52.724;6.436;2022-09-16T10:20:00;6.43;;;1.17;;
52586;SDS011;38480;52.724;6.436;2022-09-16T10:22:29;8.43;;;1.92;;
52586;SDS011;38480;52.724;6.436;2022-09-16T10:25:00;5.97;;;1.70;;
52586;SDS011;38480;52.724;6.436;2022-09-16T10:27:27;9.87;;;2.17;;
52586;SDS011;38480;52.724;6.436;2022-09-16T10:33:24;11.27;;;1.87;;
52586;SDS011;38480;52.724;6.436;2022-09-16T10:35:26;13.80;;;2.30;;
52586;SDS011;38480;52.724;6.436;2022-09-16T10:37:57;6.03;;;1.77;;
52586;SDS011;38480;52.724;6.436;2022-09-16T10:40:24;8.67;;;1.73;;
52586;SDS011;38480;52.724;6.436;2022-09-16T10:42:51;11.90;;;1.83;;
52586;SDS011;38480;52.724;6.436;2022-09-16T10:45:21;12.63;;;2.60;;
52586;SDS011;38480;52.724;6.436;2022-09-16T10:47:48;10.17;;;1.77;;
52586;SDS011;38480;52.724;6.436;2022-09-16T10:50:16;13.83;;;1.90;;
52586;SDS011;38480;52.724;6.436;2022-09-16T10:52:44;9.87;;;1.70;;
52586;SDS011;38480;52.724;6.436;2022-09-16T10:57:45;14.23;;;2.30;;
52586;SDS011;38480;52.724;6.436;2022-09-16T11:08:16;9.03;;;1.73;;
52586;SDS011;38480;52.724;6.436;2022-09-16T11:13:29;11.52;;;1.95;;
52586;SDS011;38480;52.724;6.436;2022-09-16T11:18:32;7.30;;;1.70;;
52586;SDS011;38480;52.724;6.436;2022-09-16T11:34:05;10.20;;;1.80;;
52586;SDS011;38480;52.724;6.436;2022-09-16T11:41:43;9.70;;;1.93;;
52586;SDS011;38480;52.724;6.436;2022-09-16T11:44:30;8.13;;;2.00;;
52586;SDS011;38480;52.724;6.436;2022-09-16T11:49:34;8.23;;;1.20;;
52586;SDS011;38480;52.724;6.436;2022-09-16T11:52:31;11.07;;;1.77;;
52586;SDS011;38480;52.724;6.436;2022-09-16T11:57:43;12.23;;;2.00;;
52586;SDS011;38480;52.724;6.436;2022-09-16T12:00:12;11.17;;;2.10;;
52586;SDS011;38480;52.724;6.436;2022-09-16T12:03:00;6.57;;;1.30;;
52586;SDS011;38480;52.724;6.436;2022-09-16T12:05:35;6.50;;;1.53;;
52586;SDS011;38480;52.724;6.436;2022-09-16T12:08:13;8.60;;;2.47;;
52586;SDS011;38480;52.724;6.436;2022-09-16T12:10:53;8.43;;;1.43;;
52586;SDS011;38480;52.724;6.436;2022-09-16T12:15:55;7.47;;;0.98;;
52586;SDS011;38480;52.724;6.436;2022-09-16T12:18:29;9.63;;;1.70;;
52586;SDS011;38480;52.724;6.436;2022-09-16T12:21:09;6.13;;;1.23;;
52586;SDS011;38480;52.724;6.436;2022-09-16T12:23:48;7.77;;;1.60;;
52586;SDS011;38480;52.724;6.436;2022-09-16T12:26:20;5.17;;;1.47;;
52586;SDS011;38480;52.724;6.436;2022-09-16T12:28:54;5.67;;;1.10;;
52586;SDS011;38480;52.724;6.436;2022-09-16T12:31:35;6.60;;;1.30;;
52586;SDS011;38480;52.724;6.436;2022-09-16T12:34:03;5.27;;;1.00;;
52586;SDS011;38480;52.724;6.436;2022-09-16T12:36:31;5.67;;;1.20;;
52586;SDS011;38480;52.724;6.436;2022-09-16T12:38:58;8.37;;;1.53;;
52586;SDS011;38480;52.724;6.436;2022-09-16T12:44:19;4.17;;;0.97;;
52586;SDS011;38480;52.724;6.436;2022-09-16T12:46:54;6.70;;;1.03;;
52586;SDS011;38480;52.724;6.436;2022-09-16T12:49:34;6.17;;;1.30;;
52586;SDS011;38480;52.724;6.436;2022-09-16T13:02:22;4.70;;;1.20;;
52586;SDS011;38480;52.724;6.436;2022-09-16T13:04:48;6.03;;;1.50;;
52586;SDS011;38480;52.724;6.436;2022-09-16T13:07:23;13.77;;;2.17;;
52586;SDS011;38480;52.724;6.436;2022-09-16T13:10:00;8.97;;;1.77;;
52586;SDS011;38480;52.724;6.436;2022-09-16T13:12:26;6.90;;;1.53;;
52586;SDS011;38480;52.724;6.436;2022-09-16T13:14:54;9.20;;;1.67;;
52586;SDS011;38480;52.724;6.436;2022-09-16T13:17:27;9.90;;;1.90;;
52586;SDS011;38480;52.724;6.436;2022-09-16T13:19:54;8.77;;;1.73;;
52586;SDS011;38480;52.724;6.436;2022-09-16T13:22:44;9.17;;;2.23;;
52586;SDS011;38480;52.724;6.436;2022-09-16T13:25:21;9.73;;;1.67;;
52586;SDS011;38480;52.724;6.436;2022-09-16T13:27:58;10.83;;;2.33;;
52586;SDS011;38480;52.724;6.436;2022-09-16T13:30:32;7.77;;;1.70;;
52586;SDS011;38480;52.724;6.436;2022-09-16T13:33:01;10.43;;;1.60;;
52586;SDS011;38480;52.724;6.436;2022-09-16T13:37:57;12.43;;;2.20;;
52586;SDS011;38480;52.724;6.436;2022-09-16T13:40:28;9.30;;;1.70;;
52586;SDS011;38480;52.724;6.436;2022-09-16T13:45:42;12.67;;;1.70;;
52586;SDS011;38480;52.724;6.436;2022-09-16T13:48:16;6.37;;;1.77;;
52586;SDS011;38480;52.724;6.436;2022-09-16T13:50:44;6.17;;;1.43;;
52586;SDS011;38480;52.724;6.436;2022-09-16T13:53:19;12.67;;;1.70;;
52586;SDS011;38480;52.724;6.436;2022-09-16T13:55:46;7.83;;;1.90;;
52586;SDS011;38480;52.724;6.436;2022-09-16T13:58:16;7.20;;;1.67;;
52586;SDS011;38480;52.724;6.436;2022-09-16T14:05:59;8.73;;;1.90;;
52586;SDS011;38480;52.724;6.436;2022-09-16T14:08:42;10.73;;;2.00;;
52586;SDS011;38480;52.724;6.436;2022-09-16T14:14:00;10.13;;;2.27;;
52586;SDS011;38480;52.724;6.436;2022-09-16T14:16:27;15.07;;;2.03;;
52586;SDS011;38480;52.724;6.436;2022-09-16T14:21:20;12.83;;;2.47;;
52586;SDS011;38480;52.724;6.436;2022-09-16T14:23:47;7.83;;;1.90;;
52586;SDS011;38480;52.724;6.436;2022-09-16T14:26:14;14.70;;;2.60;;
52586;SDS011;38480;52.724;6.436;2022-09-16T14:28:41;11.33;;;2.30;;
52586;SDS011;38480;52.724;6.436;2022-09-16T14:31:29;10.50;;;1.93;;
52586;SDS011;38480;52.724;6.436;2022-09-16T14:33:58;9.83;;;1.87;;
52586;SDS011;38480;52.724;6.436;2022-09-16T14:36:34;12.10;;;2.50;;
52586;SDS011;38480;52.724;6.436;2022-09-16T14:41:34;13.77;;;2.30;;
52586;SDS011;38480;52.724;6.436;2022-09-16T14:46:27;13.10;;;2.77;;
52586;SDS011;38480;52.724;6.436;2022-09-16T14:48:53;15.47;;;2.70;;
52586;SDS011;38480;52.724;6.436;2022-09-16T14:51:23;16.07;;;2.40;;
52586;SDS011;38480;52.724;6.436;2022-09-16T14:53:57;16.43;;;3.13;;
52586;SDS011;38480;52.724;6.436;2022-09-16T14:56:24;15.75;;;2.45;;
52586;SDS011;38480;52.724;6.436;2022-09-16T14:58:51;12.47;;;2.70;;
52586;SDS011;38480;52.724;6.436;2022-09-16T15:01:20;12.30;;;2.90;;
52586;SDS011;38480;52.724;6.436;2022-09-16T15:03:50;10.10;;;2.20;;
52586;SDS011;38480;52.724;6.436;2022-09-16T15:06:19;11.77;;;1.90;;
52586;SDS011;38480;52.724;6.436;2022-09-16T15:08:50;12.63;;;2.40;;
52586;SDS011;38480;52.724;6.436;2022-09-16T15:11:26;9.43;;;2.08;;
52586;SDS011;38480;52.724;6.436;2022-09-16T15:13:52;12.33;;;2.23;;
52586;SDS011;38480;52.724;6.436;2022-09-16T15:16:19;15.13;;;2.57;;
52586;SDS011;38480;52.724;6.436;2022-09-16T15:19:02;13.37;;;2.80;;
52586;SDS011;38480;52.724;6.436;2022-09-16T15:21:29;20.60;;;3.53;;
52586;SDS011;38480;52.724;6.436;2022-09-16T15:23:57;13.30;;;2.50;;
52586;SDS011;38480;52.724;6.436;2022-09-16T15:29:10;16.43;;;3.20;;
52586;SDS011;38480;52.724;6.436;2022-09-16T15:31:38;12.70;;;2.57;;
52586;SDS011;38480;52.724;6.436;2022-09-16T15:36:47;19.83;;;2.30;;
52586;SDS011;38480;52.724;6.436;2022-09-16T15:41:49;20.47;;;4.03;;
52586;SDS011;38480;52.724;6.436;2022-09-16T15:44:18;19.83;;;2.40;;
52586;SDS011;38480;52.724;6.436;2022-09-16T15:46:45;17.40;;;3.03;;
52586;SDS011;38480;52.724;6.436;2022-09-16T15:49:11;19.40;;;2.80;;
52586;SDS011;38480;52.724;6.436;2022-09-16T15:51:44;16.57;;;3.53;;
52586;SDS011;38480;52.724;6.436;2022-09-16T15:56:54;22.03;;;2.03;;
52586;SDS011;38480;52.724;6.436;2022-09-16T16:01:50;14.20;;;2.67;;
52586;SDS011;38480;52.724;6.436;2022-09-16T16:04:21;14.30;;;2.50;;
52586;SDS011;38480;52.724;6.436;2022-09-16T16:06:52;14.07;;;1.90;;
52586;SDS011;38480;52.724;6.436;2022-09-16T16:14:23;20.83;;;2.63;;
52586;SDS011;38480;52.724;6.436;2022-09-16T16:16:49;22.97;;;2.17;;
52586;SDS011;38480;52.724;6.436;2022-09-16T16:19:16;15.80;;;2.10;;
52586;SDS011;38480;52.724;6.436;2022-09-16T16:21:42;14.73;;;2.30;;
52586;SDS011;38480;52.724;6.436;2022-09-16T16:24:12;14.50;;;2.93;;
52586;SDS011;38480;52.724;6.436;2022-09-16T16:26:39;12.87;;;1.87;;
52586;SDS011;38480;52.724;6.436;2022-09-16T16:29:05;12.73;;;2.10;;
52586;SDS011;38480;52.724;6.436;2022-09-16T16:31:31;14.90;;;2.17;;
52586;SDS011;38480;52.724;6.436;2022-09-16T16:33:58;9.40;;;2.13;;
52586;SDS011;38480;52.724;6.436;2022-09-16T16:36:24;11.47;;;2.27;;
52586;SDS011;38480;52.724;6.436;2022-09-16T16:38:50;14.40;;;1.90;;
52586;SDS011;38480;52.724;6.436;2022-09-16T16:41:20;8.97;;;1.47;;
52586;SDS011;38480;52.724;6.436;2022-09-16T16:43:46;11.53;;;2.03;;
52586;SDS011;38480;52.724;6.436;2022-09-16T16:46:12;12.37;;;2.10;;
52586;SDS011;38480;52.724;6.436;2022-09-16T16:48:38;7.03;;;1.43;;
52586;SDS011;38480;52.724;6.436;2022-09-16T16:51:06;11.90;;;1.73;;
52586;SDS011;38480;52.724;6.436;2022-09-16T16:53:33;10.10;;;1.87;;
52586;SDS011;38480;52.724;6.436;2022-09-16T16:56:06;9.50;;;1.47;;
52586;SDS011;38480;52.724;6.436;2022-09-16T16:58:33;10.17;;;1.37;;
52586;SDS011;38480;52.724;6.436;2022-09-16T17:01:14;7.53;;;1.37;;
52586;SDS011;38480;52.724;6.436;2022-09-16T17:03:41;6.83;;;1.60;;
52586;SDS011;38480;52.724;6.436;2022-09-16T17:06:08;8.27;;;1.30;;
52586;SDS011;38480;52.724;6.436;2022-09-16T17:08:35;5.97;;;1.20;;
52586;SDS011;38480;52.724;6.436;2022-09-16T17:11:05;7.00;;;0.97;;
52586;SDS011;38480;52.724;6.436;2022-09-16T17:13:31;4.53;;;0.93;;
52586;SDS011;38480;52.724;6.436;2022-09-16T17:15:57;4.73;;;0.87;;
52586;SDS011;38480;52.724;6.436;2022-09-16T17:18:23;6.50;;;0.70;;
52586;SDS011;38480;52.724;6.436;2022-09-16T17:20:49;5.07;;;0.90;;
52586;SDS011;38480;52.724;6.436;2022-09-16T17:23:15;5.87;;;1.00;;
52586;SDS011;38480;52.724;6.436;2022-09-16T17:25:41;6.73;;;1.10;;
52586;SDS011;38480;52.724;6.436;2022-09-16T17:28:07;7.47;;;3.00;;
52586;SDS011;38480;52.724;6.436;2022-09-16T17:30:34;5.00;;;1.10;;
52586;SDS011;38480;52.724;6.436;2022-09-16T17:33:00;6.03;;;1.17;;
52586;SDS011;38480;52.724;6.436;2022-09-16T17:35:26;4.77;;;0.90;;
52586;SDS011;38480;52.724;6.436;2022-09-16T17:37:52;11.07;;;1.30;;
52586;SDS011;38480;52.724;6.436;2022-09-16T17:40:18;9.77;;;1.63;;